Time;durP1;ratioP1;P1;durP2;ratioP2;P2;SDS_P1;SDS_P2;PMS_P1;PMS_P2;Temp;Humidity;BMP_temperature;BMP_pressure;BME280_temperature;BME280_humidity;BME280_pressure;Samples;Min_cycle;Max_cycle;Signal;HPM_P1;HPM_P2
2023/01/05 00:00:50;;;;;;;10.18;3.50;;;11.70;93.40;;;;;;5047755;28;20507;-70
2023/01/05 00:03:17;;;;;;;11.13;3.05;;;11.70;93.60;;;;;;5045270;28;20460;-70
2023/01/05 00:05:44;;;;;;;9.68;3.80;;;11.70;93.60;;;;;;5038843;28;20722;-70
2023/01/05 00:08:11;;;;;;;12.88;3.83;;;11.60;93.70;;;;;;5047785;28;20684;-71
2023/01/05 00:24:40;;;;;;;10.52;3.55;;;11.60;93.90;;;;;;4972829;28;20973;-70
2023/01/05 00:27:07;;;;;;;12.00;4.10;;;11.60;93.90;;;;;;5019182;28;20875;-71
2023/01/05 00:29:35;;;;;;;9.40;3.00;;;11.60;93.90;;;;;;5046980;28;20420;-71
2023/01/05 00:32:02;;;;;;;8.65;3.20;;;11.60;93.90;;;;;;5046281;28;20433;-71
2023/01/05 00:34:28;;;;;;;10.45;3.55;;;11.50;94.00;;;;;;5037206;28;20452;-69
2023/01/05 00:36:55;;;;;;;9.20;3.40;;;11.50;94.10;;;;;;5046607;28;20456;-70
2023/01/05 00:39:22;;;;;;;10.90;3.35;;;11.50;94.10;;;;;;5047652;28;20771;-70
2023/01/05 00:41:49;;;;;;;13.60;4.00;;;11.50;94.10;;;;;;5045261;28;22161;-70
2023/01/05 00:44:15;;;;;;;8.63;2.80;;;11.50;94.00;;;;;;5040025;28;20421;-70
2023/01/05 00:46:43;;;;;;;10.27;2.90;;;11.50;94.10;;;;;;5052009;28;20752;-70
2023/01/05 00:49:10;;;;;;;9.10;3.50;;;11.50;94.10;;;;;;5043545;28;20579;-71
2023/01/05 00:51:37;;;;;;;9.13;3.47;;;11.50;94.10;;;;;;5041204;28;20409;-70
2023/01/05 00:54:03;;;;;;;9.43;2.95;;;11.50;93.90;;;;;;5037283;28;20513;-70
2023/01/05 00:56:30;;;;;;;7.78;2.60;;;11.50;94.00;;;;;;5045052;28;20444;-70
2023/01/05 00:58:57;;;;;;;9.38;3.10;;;11.50;94.00;;;;;;5046869;28;20929;-69
2023/01/05 01:01:24;;;;;;;12.15;3.80;;;11.50;93.90;;;;;;5046947;28;20417;-70
2023/01/05 01:03:52;;;;;;;10.50;3.65;;;11.50;93.80;;;;;;5037421;28;21195;-70
2023/01/05 01:06:19;;;;;;;11.13;3.20;;;11.50;93.80;;;;;;5046018;28;21061;-70
2023/01/05 01:08:45;;;;;;;8.90;3.20;;;11.50;93.60;;;;;;5045940;28;20420;-70
2023/01/05 01:11:15;;;;;;;12.40;3.30;;;11.50;93.50;;;;;;5045015;28;20524;-69
2023/01/05 01:13:42;;;;;;;9.90;4.10;;;11.40;93.70;;;;;;5044924;28;20433;-69
2023/01/05 01:16:10;;;;;;;9.30;3.40;;;11.40;93.60;;;;;;5027321;28;20423;-70
2023/01/05 01:18:36;;;;;;;9.98;3.30;;;11.40;93.70;;;;;;5039449;28;20429;-70
2023/01/05 01:21:05;;;;;;;10.63;3.90;;;11.40;93.80;;;;;;5039552;28;20506;-69
2023/01/05 01:23:32;;;;;;;10.97;3.60;;;11.40;93.80;;;;;;5038178;28;21008;-69
2023/01/05 01:25:59;;;;;;;11.23;3.00;;;11.40;93.90;;;;;;5044040;28;20576;-69
2023/01/05 01:28:26;;;;;;;9.65;3.90;;;11.40;93.90;;;;;;5046376;28;20425;-70
2023/01/05 01:30:53;;;;;;;9.80;2.95;;;11.40;93.90;;;;;;5046102;28;20876;-69
2023/01/05 01:33:19;;;;;;;9.83;3.63;;;11.40;93.90;;;;;;5043676;28;20433;-70
2023/01/05 01:35:46;;;;;;;10.55;3.08;;;11.40;93.90;;;;;;5044988;28;20417;-69
2023/01/05 01:38:14;;;;;;;9.90;3.38;;;11.30;94.00;;;;;;5045142;28;20433;-68
2023/01/05 01:40:43;;;;;;;9.75;3.65;;;11.30;94.10;;;;;;5036935;28;20431;-70
2023/01/05 01:43:13;;;;;;;11.45;3.88;;;11.40;94.10;;;;;;5043663;28;20436;-70
2023/01/05 01:45:40;;;;;;;12.70;4.50;;;11.30;94.20;;;;;;5045990;28;20428;-70
2023/01/05 01:48:09;;;;;;;12.63;4.40;;;11.30;94.30;;;;;;5045369;28;20509;-72
2023/01/05 01:50:41;;;;;;;9.05;3.53;;;11.30;94.50;;;;;;5036681;28;20425;-69
2023/01/05 01:53:12;;;;;;;11.57;3.65;;;11.30;94.50;;;;;;5044027;28;20421;-70
2023/01/05 01:55:40;;;;;;;11.15;3.90;;;11.30;94.50;;;;;;5045141;28;20439;-69
2023/01/05 01:58:12;;;;;;;9.57;3.70;;;11.30;94.50;;;;;;5041266;28;20547;-70
2023/01/05 02:00:39;;;;;;;13.70;4.00;;;11.30;94.80;;;;;;5037619;28;20460;-69
2023/01/05 02:03:06;;;;;;;10.30;3.40;;;11.30;94.80;;;;;;5043871;28;20425;-68
2023/01/05 02:05:36;;;;;;;10.93;3.70;;;11.30;94.80;;;;;;5036793;28;20426;-69
2023/01/05 02:08:03;;;;;;;10.68;3.40;;;11.30;94.90;;;;;;5044068;28;20479;-69
2023/01/05 02:10:45;;;;;;;14.50;3.88;;;11.30;94.80;;;;;;5034100;28;20888;-70
2023/01/05 02:13:27;;;;;;;13.05;4.00;;;11.20;94.80;;;;;;5035865;28;20421;-70
2023/01/05 02:16:02;;;;;;;13.20;3.97;;;11.20;95.20;;;;;;5045636;28;20413;-69
2023/01/05 02:18:44;;;;;;;14.02;4.03;;;11.30;94.90;;;;;;5043556;28;20453;-68
2023/01/05 02:21:29;;;;;;;10.38;3.50;;;11.20;94.90;;;;;;5037272;28;20823;-69
2023/01/05 02:24:19;;;;;;;14.38;4.20;;;11.20;94.80;;;;;;5045042;28;20442;-69
2023/01/05 02:27:12;;;;;;;11.35;3.80;;;11.20;94.80;;;;;;5042983;28;20440;-70
2023/01/05 02:30:05;;;;;;;12.98;4.93;;;11.20;94.70;;;;;;5033870;28;20407;-70
2023/01/05 02:32:42;;;;;;;12.80;3.80;;;11.20;95.10;;;;;;5017438;28;21099;-69
2023/01/05 02:35:17;;;;;;;12.05;3.80;;;11.20;94.40;;;;;;5045146;28;20510;-69
2023/01/05 02:37:48;;;;;;;12.68;5.28;;;11.20;94.20;;;;;;5028577;28;20415;-70
2023/01/05 02:40:21;;;;;;;12.80;4.30;;;11.20;94.30;;;;;;5028401;28;20846;-69
2023/01/05 02:42:50;;;;;;;12.07;4.40;;;11.20;94.30;;;;;;5043310;28;20903;-69
2023/01/05 02:45:17;;;;;;;12.82;3.90;;;11.20;94.20;;;;;;5044989;28;20892;-69
2023/01/05 02:47:45;;;;;;;9.20;3.90;;;11.10;94.10;;;;;;5043894;28;20433;-69
2023/01/05 02:50:16;;;;;;;11.07;4.63;;;11.10;94.20;;;;;;5043834;28;20421;-69
2023/01/05 02:52:50;;;;;;;12.68;4.35;;;11.00;94.50;;;;;;5044445;28;21044;-70
2023/01/05 02:55:20;;;;;;;13.70;4.13;;;10.90;94.80;;;;;;5044372;28;20923;-70
2023/01/05 02:57:52;;;;;;;15.35;5.05;;;10.90;95.10;;;;;;5042838;28;20437;-69
2023/01/05 03:00:24;;;;;;;12.30;4.75;;;10.90;95.30;;;;;;5036314;28;20440;-69
2023/01/05 03:02:55;;;;;;;10.77;3.85;;;10.90;95.10;;;;;;5042730;28;20433;-69
2023/01/05 03:05:26;;;;;;;12.48;4.10;;;11.00;94.90;;;;;;5035835;28;20417;-69
2023/01/05 03:08:06;;;;;;;11.48;3.50;;;11.00;94.80;;;;;;5042736;28;20899;-69
2023/01/05 03:13:41;;;;;;;11.90;3.90;;;11.00;94.60;;;;;;5042463;28;20466;-69
2023/01/05 03:16:10;;;;;;;10.37;3.47;;;11.00;94.60;;;;;;5048750;28;20432;-70
2023/01/05 03:19:35;;;;;;;13.52;3.90;;;11.00;94.50;;;;;;5045941;28;20425;-69
2023/01/05 03:21:26;;;;;;;15.38;4.32;;;11.00;94.60;;;;;;5035212;28;21055;-69
2023/01/05 03:38:00;;;;;;;11.85;4.20;;;11.00;95.10;;;;;;5028021;28;20426;-69
2023/01/05 03:40:30;;;;;;;10.90;4.32;;;10.90;95.30;;;;;;5029532;28;20453;-69
2023/01/05 03:42:57;;;;;;;13.05;4.45;;;10.90;95.20;;;;;;5046703;28;20429;-70
2023/01/05 03:45:27;;;;;;;15.57;4.18;;;10.90;95.20;;;;;;5048371;28;20417;-69
2023/01/05 03:47:54;;;;;;;13.35;4.25;;;11.00;95.30;;;;;;5045848;28;20818;-69
2023/01/05 03:50:23;;;;;;;11.68;4.28;;;11.00;95.10;;;;;;5040491;28;20437;-69
2023/01/05 03:52:49;;;;;;;11.43;4.20;;;11.00;94.90;;;;;;5046983;28;20528;-69
2023/01/05 03:55:16;;;;;;;13.50;4.07;;;11.00;94.80;;;;;;5046633;28;20440;-70
2023/01/05 03:57:43;;;;;;;11.48;3.63;;;11.00;94.70;;;;;;5046670;28;20429;-69
2023/01/05 04:00:11;;;;;;;11.57;4.00;;;11.00;94.60;;;;;;5039017;28;20433;-70
2023/01/05 04:02:38;;;;;;;12.30;4.75;;;11.00;94.60;;;;;;5045718;28;20448;-69
2023/01/05 04:05:05;;;;;;;13.13;4.50;;;11.00;94.70;;;;;;5036802;28;20419;-70
2023/01/05 04:07:33;;;;;;;17.02;4.72;;;11.00;94.70;;;;;;5031893;28;20450;-70
2023/01/05 04:10:00;;;;;;;11.05;3.95;;;11.00;94.70;;;;;;5034456;28;20422;-70
2023/01/05 04:12:27;;;;;;;16.80;4.30;;;11.00;94.80;;;;;;5035357;28;20866;-69
2023/01/05 04:14:54;;;;;;;14.55;4.10;;;11.00;94.70;;;;;;5047232;28;20429;-69
2023/01/05 04:17:20;;;;;;;10.70;3.92;;;11.00;94.80;;;;;;5041807;28;20449;-69
2023/01/05 04:19:47;;;;;;;14.38;4.30;;;11.00;94.60;;;;;;5043281;28;20436;-69
2023/01/05 04:22:14;;;;;;;17.17;4.95;;;11.00;94.70;;;;;;5046478;28;20424;-69
2023/01/05 04:24:42;;;;;;;12.63;4.05;;;11.00;95.00;;;;;;5047669;28;20465;-70
2023/01/05 04:27:09;;;;;;;12.57;4.00;;;11.00;94.90;;;;;;5045349;28;20445;-69
2023/01/05 04:29:35;;;;;;;11.00;4.05;;;11.00;94.60;;;;;;5038857;28;20421;-69
2023/01/05 04:32:02;;;;;;;12.05;4.40;;;11.00;94.70;;;;;;5046322;28;20433;-69
2023/01/05 04:34:29;;;;;;;13.13;3.88;;;11.00;94.60;;;;;;5045433;28;20416;-69
2023/01/05 04:36:56;;;;;;;13.20;4.70;;;11.00;94.50;;;;;;5045310;28;20453;-69
2023/01/05 04:39:22;;;;;;;12.20;4.25;;;11.00;95.00;;;;;;5037826;28;20426;-70
2023/01/05 04:41:50;;;;;;;14.88;4.20;;;11.00;94.60;;;;;;5045692;28;20422;-69
2023/01/05 04:44:17;;;;;;;13.57;4.47;;;11.00;94.80;;;;;;5044336;28;21052;-70
2023/01/05 04:46:44;;;;;;;13.02;4.53;;;10.90;94.80;;;;;;5038948;28;20427;-69
2023/01/05 04:49:11;;;;;;;10.93;4.05;;;10.90;94.90;;;;;;5042977;28;21067;-69
2023/01/05 04:51:37;;;;;;;13.38;4.20;;;10.90;95.00;;;;;;5045454;28;20454;-69
2023/01/05 04:54:04;;;;;;;14.57;5.20;;;10.90;94.80;;;;;;5046121;28;20444;-70
2023/01/05 04:56:31;;;;;;;14.63;4.30;;;10.90;94.90;;;;;;5044665;28;20440;-70
2023/01/05 04:58:59;;;;;;;13.35;3.90;;;10.90;94.90;;;;;;5046974;28;20433;-70
2023/01/05 05:01:26;;;;;;;14.98;4.60;;;10.90;94.90;;;;;;5047853;28;20421;-69
2023/01/05 05:03:53;;;;;;;14.65;4.15;;;10.90;95.10;;;;;;5044554;28;20441;-69
2023/01/05 05:06:19;;;;;;;9.95;3.88;;;10.90;96.10;;;;;;5040733;28;20418;-69
2023/01/05 05:08:46;;;;;;;13.73;5.00;;;10.70;97.60;;;;;;5045294;28;20433;-69
2023/01/05 05:11:13;;;;;;;15.18;4.63;;;10.50;99.00;;;;;;5046013;28;20947;-68
2023/01/05 05:13:40;;;;;;;16.17;4.93;;;10.30;99.90;;;;;;5042744;28;20436;-69
2023/01/05 05:16:08;;;;;;;13.70;4.97;;;10.20;99.90;;;;;;5044461;28;20430;-70
2023/01/05 05:18:35;;;;;;;19.30;5.70;;;10.10;99.90;;;;;;5049202;28;20448;-69
2023/01/05 05:21:02;;;;;;;16.20;5.47;;;10.00;99.90;;;;;;5051312;28;20439;-69
2023/01/05 05:23:29;;;;;;;15.00;5.00;;;10.00;99.90;;;;;;5052042;28;20440;-70
2023/01/05 05:25:56;;;;;;;15.15;5.03;;;9.90;99.90;;;;;;5053405;28;20772;-70
2023/01/05 05:28:26;;;;;;;16.13;5.53;;;9.90;99.90;;;;;;5053036;28;20425;-70
2023/01/05 05:30:53;;;;;;;15.60;4.45;;;10.00;99.90;;;;;;5051495;28;20489;-70
2023/01/05 05:33:21;;;;;;;14.77;5.10;;;9.90;99.90;;;;;;5044527;28;20435;-70
2023/01/05 05:35:48;;;;;;;14.50;5.55;;;9.90;99.90;;;;;;5045213;28;20417;-70
2023/01/05 05:38:15;;;;;;;15.67;5.03;;;10.00;99.90;;;;;;5051102;28;21261;-69
2023/01/05 05:40:42;;;;;;;13.35;4.97;;;10.00;99.90;;;;;;5044893;28;20532;-70
2023/01/05 05:43:08;;;;;;;11.80;4.68;;;10.10;99.90;;;;;;5050111;28;20433;-70
2023/01/05 05:45:35;;;;;;;14.00;5.30;;;10.20;99.90;;;;;;5051807;28;20421;-70
2023/01/05 05:48:02;;;;;;;14.93;4.60;;;10.20;99.90;;;;;;5050965;28;20433;-70
2023/01/05 05:50:30;;;;;;;14.80;5.40;;;10.20;99.90;;;;;;5050739;28;20459;-70
2023/01/05 05:52:57;;;;;;;15.00;5.65;;;10.20;99.90;;;;;;5050581;28;20919;-70
2023/01/05 05:55:23;;;;;;;16.45;5.22;;;10.20;99.90;;;;;;5052029;28;20922;-70
2023/01/05 05:57:50;;;;;;;19.85;5.82;;;10.20;99.90;;;;;;5047755;28;20441;-71
2023/01/05 06:00:17;;;;;;;19.23;5.60;;;10.30;99.90;;;;;;5045499;28;20429;-67
2023/01/05 06:02:44;;;;;;;15.07;5.70;;;10.30;99.90;;;;;;5046176;28;20489;-69
2023/01/05 06:05:11;;;;;;;13.95;5.05;;;10.40;99.90;;;;;;5046874;28;20428;-67
2023/01/05 06:07:39;;;;;;;18.90;5.53;;;10.50;99.90;;;;;;5047924;28;20437;-68
2023/01/05 06:10:07;;;;;;;13.87;4.90;;;10.60;99.90;;;;;;5043435;28;20487;-68
2023/01/05 06:12:34;;;;;;;15.45;4.50;;;10.60;99.50;;;;;;5041586;28;20429;-70
2023/01/05 06:15:00;;;;;;;17.58;5.10;;;10.60;99.40;;;;;;5045829;28;20433;-71
2023/01/05 06:17:27;;;;;;;17.73;4.93;;;10.60;99.40;;;;;;5044299;28;20437;-71
2023/01/05 06:19:54;;;;;;;16.23;5.22;;;10.50;99.40;;;;;;5045353;28;20444;-70
2023/01/05 06:22:21;;;;;;;16.75;5.60;;;10.60;99.40;;;;;;5043994;28;20440;-70
2023/01/05 06:24:49;;;;;;;11.30;4.80;;;10.50;99.30;;;;;;5045308;28;20495;-71
2023/01/05 06:27:16;;;;;;;15.43;5.30;;;10.60;99.40;;;;;;5043640;28;20443;-71
2023/01/05 06:29:42;;;;;;;13.18;4.90;;;10.50;99.30;;;;;;5045367;28;20430;-71
2023/01/05 06:32:09;;;;;;;15.00;5.47;;;10.50;99.30;;;;;;5043788;28;20421;-71
2023/01/05 06:34:36;;;;;;;19.00;5.20;;;10.50;99.20;;;;;;5044830;28;20421;-72
2023/01/05 06:37:05;;;;;;;12.63;4.30;;;10.60;98.90;;;;;;5043290;28;20436;-71
2023/01/05 06:39:31;;;;;;;18.65;4.82;;;10.60;98.70;;;;;;5044785;28;20452;-72
2023/01/05 06:42:00;;;;;;;14.40;4.72;;;10.60;98.60;;;;;;5041598;28;20440;-71
2023/01/05 06:44:26;;;;;;;12.07;4.53;;;10.60;98.90;;;;;;5047369;28;20432;-71
2023/01/05 06:46:53;;;;;;;17.17;5.70;;;10.60;98.70;;;;;;5051820;28;20432;-71
2023/01/05 06:49:20;;;;;;;12.65;4.95;;;10.60;98.60;;;;;;5055817;28;20443;-71
2023/01/05 06:51:47;;;;;;;15.23;4.60;;;10.60;98.80;;;;;;5061750;28;20431;-71
2023/01/05 06:54:14;;;;;;;14.73;6.10;;;10.60;98.70;;;;;;5049935;28;20432;-71
2023/01/05 06:56:40;;;;;;;15.02;4.97;;;10.60;98.40;;;;;;5050389;28;20417;-71
2023/01/05 06:59:08;;;;;;;12.73;5.03;;;10.60;98.30;;;;;;5047791;28;20785;-69
2023/01/05 07:01:35;;;;;;;15.70;5.45;;;10.60;98.50;;;;;;5024093;28;20454;-70
2023/01/05 07:04:02;;;;;;;14.95;5.00;;;10.60;98.50;;;;;;5053801;28;20488;-70
2023/01/05 07:06:29;;;;;;;17.63;6.38;;;10.60;98.50;;;;;;5046306;28;20532;-71
2023/01/05 07:08:56;;;;;;;15.70;4.88;;;10.60;98.60;;;;;;5042375;28;20444;-70
2023/01/05 07:11:23;;;;;;;17.58;5.50;;;10.60;98.50;;;;;;5039626;28;20502;-70
2023/01/05 07:13:50;;;;;;;14.50;4.90;;;10.60;98.40;;;;;;5041440;28;20435;-71
2023/01/05 07:16:19;;;;;;;16.02;5.88;;;10.60;98.40;;;;;;5037675;28;21120;-71
2023/01/05 07:18:45;;;;;;;15.25;4.90;;;10.60;98.50;;;;;;5042875;28;20516;-69
2023/01/05 07:21:12;;;;;;;16.70;5.57;;;10.60;98.60;;;;;;5041289;28;20461;-70
2023/01/05 07:23:39;;;;;;;18.87;6.20;;;10.60;98.10;;;;;;5035870;28;20447;-71
2023/01/05 07:26:07;;;;;;;16.40;4.85;;;10.60;98.10;;;;;;5039605;28;20441;-69
2023/01/05 07:28:34;;;;;;;16.80;6.68;;;10.60;98.10;;;;;;5036994;28;20435;-70
2023/01/05 07:31:01;;;;;;;13.03;4.43;;;10.60;98.00;;;;;;5039710;28;20487;-70
2023/01/05 07:33:30;;;;;;;17.90;5.30;;;10.70;98.10;;;;;;5042699;28;20428;-71
2023/01/05 07:36:00;;;;;;;14.32;5.10;;;10.60;98.10;;;;;;5039895;28;20409;-71
2023/01/05 07:38:27;;;;;;;16.33;4.90;;;10.70;98.10;;;;;;5033875;28;20893;-71
2023/01/05 07:40:54;;;;;;;13.75;4.70;;;10.70;98.20;;;;;;5035786;28;20425;-71
2023/01/05 07:43:20;;;;;;;16.77;6.10;;;10.70;98.50;;;;;;5039866;28;20945;-71
2023/01/05 07:45:47;;;;;;;17.08;5.50;;;10.70;98.30;;;;;;5039131;28;20440;-70
2023/01/05 07:48:14;;;;;;;18.58;6.43;;;10.70;98.30;;;;;;5037677;28;21084;-71
2023/01/05 07:50:42;;;;;;;18.60;5.60;;;10.70;98.80;;;;;;5043515;28;20526;-71
2023/01/05 07:53:09;;;;;;;19.38;6.07;;;10.50;99.90;;;;;;5041909;28;20442;-71
2023/01/05 07:55:35;;;;;;;17.25;5.72;;;10.40;99.90;;;;;;5042623;28;21047;-71
2023/01/05 07:58:02;;;;;;;16.98;5.35;;;10.20;99.90;;;;;;5040432;28;20437;-70
2023/01/05 08:00:31;;;;;;;19.43;5.53;;;10.10;99.90;;;;;;5039425;28;20440;-71
2023/01/05 08:02:57;;;;;;;18.95;5.80;;;10.10;99.90;;;;;;5044658;28;20455;-70
2023/01/05 08:05:28;;;;;;;15.40;6.15;;;10.10;99.90;;;;;;5044709;28;20429;-70
2023/01/05 08:07:57;;;;;;;25.75;6.80;;;10.10;99.90;;;;;;5043130;28;21044;-70
2023/01/05 08:10:29;;;;;;;17.45;6.13;;;10.10;99.90;;;;;;5037243;28;20461;-71
2023/01/05 08:15:46;;;;;;;19.42;6.25;;;10.20;99.90;;;;;;5043513;28;20456;-70
2023/01/05 08:18:13;;;;;;;19.00;5.57;;;10.20;99.90;;;;;;5044186;28;20437;-70
2023/01/05 08:20:40;;;;;;;19.80;6.50;;;10.20;99.90;;;;;;5040903;28;20445;-70
2023/01/05 08:23:08;;;;;;;17.88;5.60;;;10.30;99.90;;;;;;5043654;28;20430;-70
2023/01/05 08:25:35;;;;;;;15.30;5.60;;;10.30;99.90;;;;;;5043495;28;20464;-70
2023/01/05 08:28:02;;;;;;;18.75;5.95;;;10.40;99.90;;;;;;5042178;28;20430;-70
2023/01/05 08:30:30;;;;;;;22.15;6.57;;;10.40;99.90;;;;;;5034483;28;20460;-71
2023/01/05 08:32:57;;;;;;;19.92;6.68;;;10.30;99.90;;;;;;5032857;28;20438;-71
2023/01/05 08:35:24;;;;;;;17.48;5.55;;;10.20;99.90;;;;;;5040703;28;20513;-71
2023/01/05 08:37:50;;;;;;;17.77;6.00;;;10.20;99.90;;;;;;5039541;28;20813;-71
2023/01/05 08:40:19;;;;;;;19.50;6.30;;;10.20;99.90;;;;;;5035590;28;20524;-69
2023/01/05 08:42:47;;;;;;;18.90;5.70;;;10.20;99.90;;;;;;5039446;28;20434;-69
2023/01/05 08:45:14;;;;;;;17.30;5.63;;;10.20;99.90;;;;;;5041258;28;20429;-68
2023/01/05 08:47:42;;;;;;;22.50;7.68;;;10.20;99.90;;;;;;5042402;28;20522;-69
2023/01/05 08:50:10;;;;;;;21.05;7.10;;;10.20;99.90;;;;;;5040102;28;21310;-68
2023/01/05 08:52:37;;;;;;;22.02;5.88;;;10.30;99.90;;;;;;5041772;28;20437;-69
2023/01/05 08:55:06;;;;;;;19.10;5.40;;;10.40;99.90;;;;;;5041179;28;21290;-68
2023/01/05 08:57:34;;;;;;;19.23;6.18;;;10.40;99.90;;;;;;5038806;28;20516;-68
2023/01/05 09:00:01;;;;;;;22.13;5.93;;;10.50;99.90;;;;;;5043279;28;20441;-69
2023/01/05 09:02:28;;;;;;;21.17;6.10;;;10.50;99.20;;;;;;5041670;28;20421;-68
2023/01/05 09:04:55;;;;;;;18.35;5.32;;;10.60;99.40;;;;;;5039666;28;21171;-69
2023/01/05 09:07:22;;;;;;;20.20;6.85;;;10.60;99.10;;;;;;5034716;28;21081;-68
2023/01/05 09:09:49;;;;;;;16.50;5.95;;;10.60;99.00;;;;;;5044428;28;20451;-70
2023/01/05 09:12:16;;;;;;;17.03;5.93;;;10.70;98.70;;;;;;5034427;28;20454;-69
2023/01/05 09:14:44;;;;;;;20.50;6.57;;;10.80;98.40;;;;;;5035883;28;20491;-69
2023/01/05 09:17:11;;;;;;;13.85;5.35;;;10.80;97.90;;;;;;5038410;28;20545;-69
2023/01/05 09:19:37;;;;;;;19.67;5.85;;;10.90;97.80;;;;;;5043504;28;20524;-69
2023/01/05 09:22:04;;;;;;;16.97;5.40;;;10.90;97.40;;;;;;5040377;28;20440;-68
2023/01/05 09:24:31;;;;;;;19.20;6.10;;;10.90;97.30;;;;;;5041004;28;20520;-69
2023/01/05 09:26:58;;;;;;;17.77;6.00;;;10.90;97.50;;;;;;5039990;28;20567;-70
2023/01/05 09:29:25;;;;;;;17.20;5.85;;;11.00;96.90;;;;;;5040861;28;20437;-69
2023/01/05 09:31:53;;;;;;;16.92;5.93;;;11.10;96.80;;;;;;5042777;28;20441;-69
2023/01/05 09:34:20;;;;;;;17.75;6.00;;;11.20;96.20;;;;;;5037407;28;20437;-69
2023/01/05 09:36:46;;;;;;;13.75;5.25;;;11.30;96.10;;;;;;5041028;28;20455;-68
2023/01/05 09:39:13;;;;;;;19.35;5.90;;;11.40;95.50;;;;;;5042014;28;20432;-69
2023/01/05 09:41:43;;;;;;;14.68;5.60;;;11.40;95.50;;;;;;5041951;28;20439;-69
2023/01/05 09:44:19;;;;;;;16.23;6.43;;;11.50;95.20;;;;;;5035689;28;20833;-71
2023/01/05 09:46:49;;;;;;;19.27;6.00;;;11.60;94.90;;;;;;5033961;28;20434;-71
2023/01/05 09:49:21;;;;;;;15.20;6.18;;;11.60;94.90;;;;;;5035474;28;20421;-69
2023/01/05 09:51:50;;;;;;;15.07;5.50;;;11.70;94.30;;;;;;5041972;28;20433;-69
2023/01/05 09:54:18;;;;;;;16.10;5.78;;;11.80;94.40;;;;;;5041533;28;20449;-69
2023/01/05 09:56:47;;;;;;;16.70;6.07;;;11.80;94.10;;;;;;5039641;28;20760;-70
2023/01/05 09:59:18;;;;;;;16.25;5.60;;;11.60;94.30;;;;;;5042327;28;20449;-67
2023/01/05 10:01:46;;;;;;;17.05;6.10;;;11.60;94.60;;;;;;5043263;28;20455;-68
2023/01/05 10:04:18;;;;;;;16.35;5.28;;;11.70;94.60;;;;;;5040470;28;20417;-68
2023/01/05 10:06:48;;;;;;;15.98;5.90;;;11.80;94.20;;;;;;5038741;28;20527;-69
2023/01/05 10:09:18;;;;;;;17.07;6.07;;;11.80;94.10;;;;;;5037136;28;20440;-69
2023/01/05 10:14:39;;;;;;;18.17;6.18;;;11.80;94.00;;;;;;5038754;28;20502;-69
2023/01/05 10:17:12;;;;;;;16.50;5.93;;;11.80;94.80;;;;;;5041256;28;20581;-68
2023/01/05 10:19:40;;;;;;;16.38;5.65;;;11.80;93.60;;;;;;5070561;22;20439;-68
2023/01/05 10:22:26;;;;;;;16.15;6.38;;;11.90;93.70;;;;;;5055234;28;20442;-68
2023/01/05 10:24:58;;;;;;;18.73;5.97;;;11.90;93.20;;;;;;5064050;28;20494;-69
2023/01/05 10:27:28;;;;;;;19.38;5.82;;;11.90;93.00;;;;;;5062920;28;20433;-69
2023/01/05 10:30:06;;;;;;;18.52;6.75;;;11.90;93.10;;;;;;5065336;28;20945;-72
2023/01/05 10:32:48;;;;;;;20.75;6.47;;;11.90;93.30;;;;;;5063931;28;20918;-68
2023/01/05 10:35:29;;;;;;;20.17;5.97;;;11.90;93.20;;;;;;5060860;28;20427;-68
2023/01/05 10:38:05;;;;;;;18.70;5.97;;;12.00;92.90;;;;;;5063796;28;20418;-69
2023/01/05 10:40:45;;;;;;;17.00;5.95;;;12.10;92.70;;;;;;5063093;28;20949;-69
2023/01/05 10:43:33;;;;;;;15.73;5.40;;;12.20;92.40;;;;;;5058741;28;20895;-69
2023/01/05 10:46:01;;;;;;;18.35;6.65;;;12.20;91.50;;;;;;5058444;28;20433;-69
2023/01/05 10:48:33;;;;;;;17.50;5.97;;;12.20;91.70;;;;;;5052556;28;20412;-70
2023/01/05 10:51:02;;;;;;;18.73;5.80;;;12.20;91.40;;;;;;5057555;28;20423;-70
2023/01/05 10:53:29;;;;;;;16.15;5.40;;;12.30;91.10;;;;;;5060106;28;20423;-71
2023/01/05 10:56:02;;;;;;;15.95;5.93;;;12.30;91.00;;;;;;5055599;28;20435;-71
2023/01/05 10:58:31;;;;;;;16.92;5.57;;;12.30;91.30;;;;;;5058949;28;20447;-71
2023/01/05 11:01:01;;;;;;;16.52;6.07;;;12.40;91.20;;;;;;5062580;28;20434;-71
2023/01/05 11:03:40;;;;;;;15.68;6.20;;;12.40;90.70;;;;;;5056099;28;20427;-71
2023/01/05 11:06:18;;;;;;;17.67;6.25;;;12.40;90.00;;;;;;5059913;28;20917;-70
2023/01/05 11:08:45;;;;;;;15.35;5.50;;;12.40;90.30;;;;;;5059028;28;20446;-70
2023/01/05 11:11:21;;;;;;;17.00;7.07;;;12.50;87.90;;;;;;5059871;28;20429;-70
2023/01/05 11:13:50;;;;;;;13.75;5.40;;;12.50;87.90;;;;;;5070417;28;20509;-70
2023/01/05 11:16:20;;;;;;;15.57;5.32;;;12.60;86.40;;;;;;5063897;28;20435;-69
2023/01/05 11:18:50;;;;;;;17.65;6.13;;;12.50;87.40;;;;;;5059471;28;20481;-69
2023/01/05 11:21:20;;;;;;;12.82;5.40;;;12.40;87.90;;;;;;5065866;28;20910;-69
2023/01/05 11:23:48;;;;;;;13.98;5.55;;;12.30;88.50;;;;;;5061678;28;20429;-69
2023/01/05 11:26:25;;;;;;;15.95;6.40;;;12.40;87.90;;;;;;5061109;28;20431;-69
2023/01/05 11:29:01;;;;;;;13.95;5.88;;;12.30;88.40;;;;;;5064279;28;20759;-69
2023/01/05 11:31:34;;;;;;;14.25;5.10;;;12.40;87.70;;;;;;5063506;28;20427;-68
2023/01/05 11:34:08;;;;;;;17.75;5.80;;;12.50;87.10;;;;;;5065945;28;20427;-68
2023/01/05 11:36:38;;;;;;;15.15;5.93;;;12.50;86.80;;;;;;5068107;28;20427;-69
2023/01/05 11:39:04;;;;;;;15.52;6.15;;;12.60;86.10;;;;;;5068034;28;20955;-68
2023/01/05 11:41:32;;;;;;;15.35;5.60;;;12.60;85.90;;;;;;5073532;28;20465;-68
2023/01/05 11:44:02;;;;;;;15.55;5.35;;;12.70;84.80;;;;;;5064113;28;20438;-69
2023/01/05 11:46:41;;;;;;;13.40;5.38;;;12.70;84.20;;;;;;5067287;28;20501;-69
2023/01/05 11:49:08;;;;;;;12.38;4.97;;;12.70;84.50;;;;;;5058499;28;20798;-69
2023/01/05 11:51:38;;;;;;;12.70;4.57;;;12.70;84.00;;;;;;5059151;28;20467;-69
2023/01/05 11:54:06;;;;;;;16.38;5.90;;;12.70;84.30;;;;;;5064208;28;20446;-69
2023/01/05 11:56:33;;;;;;;14.90;5.30;;;12.70;84.20;;;;;;5055535;28;21005;-70
2023/01/05 11:59:00;;;;;;;14.25;5.32;;;12.70;84.00;;;;;;5065245;28;20514;-70
2023/01/05 12:02:04;;;;;;;12.23;5.20;;;12.70;84.40;;;;;;5078936;28;20428;-70
2023/01/05 12:05:00;;;;;;;12.25;5.22;;;12.70;83.70;;;;;;5008001;28;20502;-69
2023/01/05 12:07:33;;;;;;;12.30;5.22;;;12.90;82.90;;;;;;5062860;28;20419;-69
2023/01/05 12:10:25;;;;;;;13.27;5.43;;;13.00;82.10;;;;;;5052899;28;20431;-69
2023/01/05 12:13:01;;;;;;;15.23;5.20;;;13.10;81.70;;;;;;5062377;28;20506;-69
2023/01/05 12:15:52;;;;;;;12.38;4.60;;;13.00;81.10;;;;;;5065756;28;20433;-69
2023/01/05 12:18:36;;;;;;;14.03;5.87;;;12.90;80.70;;;;;;5062480;28;20501;-69
2023/01/05 12:21:10;;;;;;;14.45;5.43;;;12.70;81.70;;;;;;5064110;28;20455;-67
2023/01/05 12:24:24;;;;;;;11.77;4.90;;;12.70;81.80;;;;;;5061970;28;20423;-68
2023/01/05 12:27:01;;;;;;;10.50;4.65;;;12.90;80.90;;;;;;5064371;28;20921;-68
2023/01/05 12:29:46;;;;;;;13.15;5.60;;;13.10;80.20;;;;;;5066113;28;20516;-67
2023/01/05 12:32:30;;;;;;;12.60;5.63;;;13.50;78.80;;;;;;5060102;28;20423;-68
2023/01/05 12:35:26;;;;;;;13.25;5.28;;;13.80;78.00;;;;;;5067463;28;20435;-68
2023/01/05 12:38:14;;;;;;;13.27;5.13;;;13.80;78.10;;;;;;5065121;28;20424;-68
2023/01/05 12:40:57;;;;;;;10.53;3.90;;;14.40;73.80;;;;;;5061552;28;20419;-69
2023/01/05 12:43:41;;;;;;;11.35;3.90;;;15.30;69.50;;;;;;5069072;28;20434;-68
2023/01/05 12:46:25;;;;;;;11.80;4.30;;;16.00;66.10;;;;;;5057421;28;20762;-69
2023/01/05 12:48:55;;;;;;;11.13;4.40;;;15.80;64.40;;;;;;5030451;28;21064;-69
2023/01/05 12:51:27;;;;;;;10.80;4.13;;;15.90;65.30;;;;;;5027528;28;20439;-69
2023/01/05 12:54:00;;;;;;;11.63;4.13;;;16.10;64.40;;;;;;5024308;28;20430;-70
2023/01/05 12:56:33;;;;;;;10.75;3.70;;;16.60;62.80;;;;;;5025896;28;20438;-69
2023/01/05 12:59:12;;;;;;;9.60;3.63;;;17.70;60.50;;;;;;5024142;28;20440;-68
2023/01/05 13:01:44;;;;;;;12.73;4.40;;;17.80;57.80;;;;;;5023365;28;20445;-69
2023/01/05 13:04:21;;;;;;;11.18;3.40;;;17.50;57.70;;;;;;5023669;28;20462;-70
2023/01/05 13:06:53;;;;;;;11.45;4.25;;;16.30;60.20;;;;;;5018731;28;20439;-68
2023/01/05 13:09:24;;;;;;;10.70;4.35;;;15.10;64.90;;;;;;5018387;28;20461;-70
2023/01/05 13:11:58;;;;;;;12.85;4.05;;;14.40;68.70;;;;;;5021360;28;20415;-68
2023/01/05 13:14:29;;;;;;;12.35;4.70;;;14.00;71.20;;;;;;5018867;28;20434;-70
2023/01/05 13:17:00;;;;;;;10.53;3.70;;;13.80;73.60;;;;;;5024544;28;20442;-68
2023/01/05 13:19:33;;;;;;;14.05;5.32;;;13.60;73.90;;;;;;5029433;28;20423;-68
2023/01/05 13:22:04;;;;;;;14.73;5.15;;;13.50;75.30;;;;;;5026268;28;20445;-68
2023/01/05 13:24:35;;;;;;;10.43;4.43;;;13.40;75.60;;;;;;5026071;28;20442;-68
2023/01/05 13:27:03;;;;;;;11.50;3.90;;;13.40;75.80;;;;;;5018441;28;20561;-69
2023/01/05 13:29:34;;;;;;;12.60;4.88;;;13.40;76.10;;;;;;5009783;28;20761;-68